Terminal Aerodrome Forecast
Issued by NWS

Current Version | Previous Version | Text Only | Print | Product List | Glossary Off
Versions: 1 2 3 4 5 6 7 8 9 10 11 12 13 14 15

505
FTUS41 KPBZ 291504 AAA
TAFMGW
TAF AMD
KMGW 291504Z 2915/3012 06007KT P6SM VCSH BKN025 OVC050
     FM292100 09012G22KT P6SM -SHRA VCTS OVC035CB
     FM300100 10012G22KT 4SM -SHRA BR OVC025=

USA.gov is the U.S. government's official web portal to all federal, state and local government web resources and services.